Time;durP1;ratioP1;P1;durP2;ratioP2;P2;SDS_P1;SDS_P2;PMS_P1;PMS_P2;Temp;Humidity;BMP_temperature;BMP_pressure;BME280_temperature;BME280_humidity;BME280_pressure;Samples;Min_cycle;Max_cycle;Signal;HPM_P1;HPM_P2
2022/05/30 00:00:22;;;;;;;;;;;7.40;99.90;;;;;;5106599;27;20018;-66
2022/05/30 00:02:49;;;;;;;;;;;7.40;99.90;;;;;;5105224;27;20334;-66
2022/05/30 00:05:16;;;;;;;;;;;7.30;99.90;;;;;;5112852;27;19946;-66
2022/05/30 00:07:43;;;;;;;;;;;7.30;99.90;;;;;;5110820;27;19923;-66
2022/05/30 00:10:10;;;;;;;;;;;7.20;99.90;;;;;;5105665;28;19931;-66
2022/05/30 00:12:39;;;;;;;;;;;7.20;99.90;;;;;;5104315;27;20283;-66
2022/05/30 00:15:06;;;;;;;;;;;7.20;99.90;;;;;;5106720;28;20761;-65
2022/05/30 00:17:33;;;;;;;;;;;7.20;99.90;;;;;;5106074;27;19930;-66
2022/05/30 00:19:59;;;;;;;;;;;7.20;99.90;;;;;;5109393;27;19940;-65
2022/05/30 00:22:26;;;;;;;;;;;7.20;99.90;;;;;;5101077;27;19933;-66
2022/05/30 00:24:53;;;;;;;;;;;7.20;99.90;;;;;;5111027;27;20007;-66
2022/05/30 00:27:20;;;;;;;;;;;7.10;99.90;;;;;;5109447;27;19982;-66
2022/05/30 00:29:48;;;;;;;;;;;7.10;99.90;;;;;;5098997;27;19951;-66
2022/05/30 00:32:14;;;;;;;;;;;7.10;99.90;;;;;;5111126;27;19930;-66
2022/05/30 00:34:41;;;;;;;;;;;7.10;99.90;;;;;;5109082;28;19924;-66
2022/05/30 00:37:08;;;;;;;;;;;7.10;99.90;;;;;;5106504;28;19923;-68
2022/05/30 00:39:34;;;;;;;;;;;7.10;99.90;;;;;;5104636;27;20272;-66
2022/05/30 00:42:08;;;;;;;;;;;7.00;99.90;;;;;;5097768;27;20015;-66
2022/05/30 00:44:35;;;;;;;;;;;7.00;99.90;;;;;;5101217;28;19974;-66
2022/05/30 00:47:03;;;;;;;;;;;7.00;99.90;;;;;;5093129;27;19942;-66
2022/05/30 00:49:30;;;;;;;;;;;7.00;99.90;;;;;;5111526;28;19931;-66
2022/05/30 00:51:57;;;;;;;;;;;6.90;99.90;;;;;;5106918;27;19938;-66
2022/05/30 00:54:29;;;;;;;;;;;6.90;99.90;;;;;;5102380;27;19928;-66
2022/05/30 00:56:56;;;;;;;;;;;6.90;99.90;;;;;;5100428;27;19924;-65
2022/05/30 00:59:23;;;;;;;;;;;6.80;99.90;;;;;;5104275;27;19932;-66
2022/05/30 01:01:50;;;;;;;;;;;6.80;99.90;;;;;;5106533;27;19928;-66
2022/05/30 01:07:04;;;;;;;;;;;6.70;99.90;;;;;;5109687;27;20002;-66
2022/05/30 01:09:33;;;;;;;;;;;6.70;99.90;;;;;;5096961;27;19939;-66
2022/05/30 01:12:00;;;;;;;;;;;6.70;99.90;;;;;;5104518;27;20310;-66
2022/05/30 01:14:28;;;;;;;;;;;6.70;99.90;;;;;;5103696;27;19930;-66
2022/05/30 01:16:55;;;;;;;;;;;6.70;99.90;;;;;;5094367;27;20370;-66
2022/05/30 01:19:37;;;;;;;;;;;6.70;99.90;;;;;;5108838;28;20010;-66
2022/05/30 01:22:10;;;;;;;;;;;6.70;99.90;;;;;;5109414;27;19939;-67
2022/05/30 01:24:43;;;;;;;;;;;6.70;99.90;;;;;;5099806;28;19970;-66
2022/05/30 01:27:17;;;;;;;;;;;6.60;99.90;;;;;;5105467;27;19928;-67
2022/05/30 01:29:46;;;;;;;;;;;6.60;99.90;;;;;;5103794;28;19974;-66
2022/05/30 01:32:17;;;;;;;;;;;6.60;99.90;;;;;;5107941;28;19967;-67
2022/05/30 01:34:44;;;;;;;;;;;6.50;99.90;;;;;;5109683;28;20002;-66
2022/05/30 01:37:10;;;;;;;;;;;6.50;99.90;;;;;;5101634;27;20301;-67
2022/05/30 01:39:37;;;;;;;;;;;6.50;99.90;;;;;;5105779;27;19930;-66
2022/05/30 01:42:04;;;;;;;;;;;6.50;99.90;;;;;;5107650;27;19942;-67
2022/05/30 01:44:31;;;;;;;;;;;6.40;99.90;;;;;;5111359;28;19934;-67
2022/05/30 01:46:59;;;;;;;;;;;6.40;99.90;;;;;;5106483;27;19924;-67
2022/05/30 01:49:26;;;;;;;;;;;6.40;99.90;;;;;;5103844;27;19927;-66
2022/05/30 01:51:54;;;;;;;;;;;6.40;99.90;;;;;;5096065;28;19928;-65
2022/05/30 01:54:21;;;;;;;;;;;6.40;99.90;;;;;;5100033;28;19924;-66
2022/05/30 01:56:48;;;;;;;;;;;6.30;99.90;;;;;;5095420;27;19931;-66
2022/05/30 01:59:15;;;;;;;;;;;6.30;99.90;;;;;;5109565;28;19924;-66
2022/05/30 02:01:45;;;;;;;;;;;6.30;99.90;;;;;;5102424;28;19949;-66
2022/05/30 02:04:13;;;;;;;;;;;6.20;99.90;;;;;;5105602;28;20342;-69
2022/05/30 02:06:40;;;;;;;;;;;6.20;99.90;;;;;;5104410;27;19930;-66
2022/05/30 02:09:07;;;;;;;;;;;6.20;99.90;;;;;;5107481;28;19992;-66
2022/05/30 02:11:34;;;;;;;;;;;6.20;99.90;;;;;;5105113;28;19925;-66
2022/05/30 02:14:01;;;;;;;;;;;6.20;99.90;;;;;;5110762;28;19924;-65
2022/05/30 02:19:12;;;;;;;;;;;6.20;99.90;;;;;;5107292;27;19977;-65
2022/05/30 02:21:39;;;;;;;;;;;6.10;99.90;;;;;;5105365;28;20022;-66
2022/05/30 02:24:06;;;;;;;;;;;6.10;99.90;;;;;;5108084;28;19928;-67
2022/05/30 02:26:34;;;;;;;;;;;6.10;99.90;;;;;;5109266;28;19923;-65
2022/05/30 02:29:02;;;;;;;;;;;6.10;99.90;;;;;;5103281;28;20457;-66
2022/05/30 02:31:29;;;;;;;;;;;6.10;99.90;;;;;;5104756;28;19924;-65
2022/05/30 02:36:44;;;;;;;;;;;6.10;99.90;;;;;;5107314;28;19946;-66
2022/05/30 02:39:12;;;;;;;;;;;6.10;99.90;;;;;;5099310;28;19940;-65
2022/05/30 02:41:39;;;;;;;;;;;6.10;99.90;;;;;;5099930;28;20352;-66
2022/05/30 02:44:05;;;;;;;;;;;6.10;99.90;;;;;;5105751;28;20313;-66
2022/05/30 02:46:32;;;;;;;;;;;6.00;99.90;;;;;;5095316;28;20003;-66
2022/05/30 02:48:59;;;;;;;;;;;5.90;99.90;;;;;;5107553;28;19924;-66
2022/05/30 02:51:26;;;;;;;;;;;5.90;99.90;;;;;;5108329;28;20054;-67
2022/05/30 02:53:57;;;;;;;;;;;5.90;99.90;;;;;;5102226;28;20377;-67
2022/05/30 02:56:24;;;;;;;;;;;5.80;99.90;;;;;;5098771;28;20298;-66
2022/05/30 02:58:51;;;;;;;;;;;5.80;99.90;;;;;;5107650;28;19955;-67
2022/05/30 03:01:19;;;;;;;;;;;5.80;99.90;;;;;;5106897;28;19931;-66
2022/05/30 03:03:46;;;;;;;;;;;5.80;99.90;;;;;;5109056;28;20391;-66
2022/05/30 03:06:13;;;;;;;;;;;5.70;99.90;;;;;;5108768;28;19924;-66
2022/05/30 03:08:39;;;;;;;;;;;5.70;99.90;;;;;;5106718;28;20002;-67
2022/05/30 03:11:07;;;;;;;;;;;5.70;99.90;;;;;;5106114;28;20018;-67
2022/05/30 03:13:34;;;;;;;;;;;5.70;99.90;;;;;;5101261;28;19931;-67
2022/05/30 03:16:01;;;;;;;;;;;5.70;99.90;;;;;;5109432;28;20027;-67
2022/05/30 03:18:28;;;;;;;;;;;5.70;99.90;;;;;;5098961;28;19930;-67
2022/05/30 03:20:54;;;;;;;;;;;5.70;99.90;;;;;;5103017;28;19931;-67
2022/05/30 03:23:21;;;;;;;;;;;5.70;99.90;;;;;;5094957;28;20014;-67
2022/05/30 03:25:48;;;;;;;;;;;5.70;99.90;;;;;;5106417;28;20406;-67
2022/05/30 03:28:16;;;;;;;;;;;5.70;99.90;;;;;;5105388;28;19923;-67
2022/05/30 03:30:44;;;;;;;;;;;5.70;99.90;;;;;;5104970;28;20022;-69
2022/05/30 03:33:10;;;;;;;;;;;5.70;99.90;;;;;;5098283;28;19935;-67
2022/05/30 03:35:38;;;;;;;;;;;5.80;99.90;;;;;;5103117;28;19924;-67
2022/05/30 03:38:05;;;;;;;;;;;5.80;99.90;;;;;;5105415;28;19959;-67
2022/05/30 03:40:31;;;;;;;;;;;5.80;99.90;;;;;;5099981;27;20379;-67
2022/05/30 03:42:58;;;;;;;;;;;5.90;99.90;;;;;;5107041;27;19930;-67
2022/05/30 03:45:26;;;;;;;;;;;5.90;99.90;;;;;;5109105;28;19930;-67
2022/05/30 03:47:53;;;;;;;;;;;5.90;99.90;;;;;;5107881;27;20442;-66
2022/05/30 03:50:21;;;;;;;;;;;5.90;99.90;;;;;;5112005;27;19937;-67
2022/05/30 03:52:48;;;;;;;;;;;5.90;99.90;;;;;;5109657;27;20014;-67
2022/05/30 03:55:16;;;;;;;;;;;6.00;99.90;;;;;;5104266;27;20302;-67
2022/05/30 03:57:43;;;;;;;;;;;6.10;99.90;;;;;;5101683;27;19927;-67
2022/05/30 04:00:10;;;;;;;;;;;6.10;99.90;;;;;;5110930;27;19969;-67
2022/05/30 04:02:38;;;;;;;;;;;6.10;99.90;;;;;;5099799;27;19924;-67
2022/05/30 04:05:06;;;;;;;;;;;6.20;99.90;;;;;;5105368;27;20374;-67
2022/05/30 04:07:32;;;;;;;;;;;6.30;99.90;;;;;;5099697;27;20006;-67
2022/05/30 04:09:59;;;;;;;;;;;6.40;99.90;;;;;;5130276;27;19931;-66
2022/05/30 04:12:25;;;;;;;;;;;6.40;99.90;;;;;;5109248;27;19931;-66
2022/05/30 04:14:53;;;;;;;;;;;6.50;99.90;;;;;;5106457;28;20002;-67
2022/05/30 04:17:19;;;;;;;;;;;6.50;99.90;;;;;;5105279;27;19923;-67
2022/05/30 04:19:47;;;;;;;;;;;6.60;99.90;;;;;;5107243;27;19928;-67
2022/05/30 04:22:14;;;;;;;;;;;6.70;99.90;;;;;;5101693;27;19928;-66
2022/05/30 04:24:41;;;;;;;;;;;6.80;99.90;;;;;;5107160;28;19939;-71
2022/05/30 04:27:08;;;;;;;;;;;6.80;99.90;;;;;;5102055;27;19938;-67
2022/05/30 04:29:34;;;;;;;;;;;6.90;99.90;;;;;;5107633;27;19942;-70
2022/05/30 04:32:01;;;;;;;;;;;7.00;99.90;;;;;;5101043;27;19938;-67
2022/05/30 04:34:28;;;;;;;;;;;7.10;99.90;;;;;;5107620;27;19993;-70
2022/05/30 04:36:56;;;;;;;;;;;7.20;99.90;;;;;;5102153;27;19924;-69
2022/05/30 04:39:23;;;;;;;;;;;7.20;99.90;;;;;;5105116;27;19924;-69
2022/05/30 04:41:50;;;;;;;;;;;7.30;99.90;;;;;;5103945;27;19962;-69
2022/05/30 04:44:16;;;;;;;;;;;7.40;99.90;;;;;;5109841;27;20294;-69
2022/05/30 04:46:43;;;;;;;;;;;7.50;99.90;;;;;;5111853;28;19924;-69
2022/05/30 04:49:10;;;;;;;;;;;7.60;99.90;;;;;;5107382;27;20442;-69
2022/05/30 04:51:36;;;;;;;;;;;7.70;99.90;;;;;;5108097;27;20348;-69
2022/05/30 04:54:05;;;;;;;;;;;7.70;99.90;;;;;;5110733;27;19924;-68
2022/05/30 04:56:31;;;;;;;;;;;7.80;99.90;;;;;;5104873;28;19928;-69
2022/05/30 04:58:58;;;;;;;;;;;7.80;99.90;;;;;;5110670;28;19924;-68
2022/05/30 05:01:27;;;;;;;;;;;7.90;99.90;;;;;;5111351;28;19930;-68
2022/05/30 05:03:53;;;;;;;;;;;8.00;99.90;;;;;;5103182;28;19924;-68
2022/05/30 05:06:20;;;;;;;;;;;8.20;99.90;;;;;;5106209;28;20290;-68
2022/05/30 05:08:54;;;;;;;;;;;8.20;99.90;;;;;;5109516;27;19923;-69
2022/05/30 05:11:23;;;;;;;;;;;8.20;99.90;;;;;;5099333;27;19923;-68
2022/05/30 05:13:50;;;;;;;;;;;8.20;99.90;;;;;;5108823;27;19930;-69
2022/05/30 05:16:17;;;;;;;;;;;8.20;99.90;;;;;;5101726;27;20420;-69
2022/05/30 05:18:44;;;;;;;;;;;8.30;99.90;;;;;;5108050;27;19931;-68
2022/05/30 05:21:15;;;;;;;;;;;8.40;99.90;;;;;;5107842;27;19958;-72
2022/05/30 05:23:42;;;;;;;;;;;8.50;99.90;;;;;;5107026;27;19928;-69
2022/05/30 05:26:09;;;;;;;;;;;8.50;99.90;;;;;;5109939;27;19963;-69
2022/05/30 05:28:37;;;;;;;;;;;8.60;99.90;;;;;;5104934;27;20569;-68
2022/05/30 05:31:04;;;;;;;;;;;8.70;99.90;;;;;;5107718;27;19970;-68
2022/05/30 05:33:30;;;;;;;;;;;8.80;99.90;;;;;;5105177;27;19924;-69
2022/05/30 05:35:57;;;;;;;;;;;8.90;99.90;;;;;;5106024;27;19931;-68
2022/05/30 05:38:24;;;;;;;;;;;9.10;99.90;;;;;;5109615;27;19923;-68
2022/05/30 05:40:52;;;;;;;;;;;9.20;99.90;;;;;;5116312;27;19951;-69
2022/05/30 05:43:19;;;;;;;;;;;9.30;99.90;;;;;;5109143;27;19973;-68
2022/05/30 05:45:47;;;;;;;;;;;9.40;99.90;;;;;;5110213;27;19930;-69
2022/05/30 05:48:15;;;;;;;;;;;9.60;99.90;;;;;;5106712;27;19989;-68
2022/05/30 05:50:42;;;;;;;;;;;9.70;99.90;;;;;;5107486;28;20309;-69
2022/05/30 05:53:09;;;;;;;;;;;9.90;99.90;;;;;;5106322;27;20389;-67
2022/05/30 05:55:37;;;;;;;;;;;9.90;99.90;;;;;;5118264;27;20022;-67
2022/05/30 05:58:04;;;;;;;;;;;10.10;99.90;;;;;;5106689;27;19942;-68
2022/05/30 06:00:33;;;;;;;;;;;10.20;99.90;;;;;;5120726;27;19935;-70
2022/05/30 06:03:04;;;;;;;;;;;10.40;99.90;;;;;;5105315;28;20296;-68
2022/05/30 06:05:31;;;;;;;;;;;10.50;99.90;;;;;;5106624;28;19940;-69
2022/05/30 06:08:00;;;;;;;;;;;10.60;99.90;;;;;;5107869;27;19924;-70
2022/05/30 06:10:27;;;;;;;;;;;10.70;99.90;;;;;;5102535;27;20007;-69
2022/05/30 06:12:53;;;;;;;;;;;10.80;99.90;;;;;;5095720;27;20351;-69
2022/05/30 06:15:20;;;;;;;;;;;10.80;99.90;;;;;;5105064;27;20018;-69
2022/05/30 06:17:47;;;;;;;;;;;10.90;99.90;;;;;;5099842;27;20298;-69
2022/05/30 06:20:16;;;;;;;;;;;11.10;99.90;;;;;;5092920;27;20401;-68
2022/05/30 06:22:43;;;;;;;;;;;11.30;99.90;;;;;;5095376;27;20321;-71
2022/05/30 06:25:10;;;;;;;;;;;11.50;99.90;;;;;;5102091;28;20503;-68
2022/05/30 06:27:37;;;;;;;;;;;11.80;99.90;;;;;;5104568;28;19923;-68
2022/05/30 06:30:04;;;;;;;;;;;12.20;99.90;;;;;;5112299;27;19930;-68
2022/05/30 06:32:31;;;;;;;;;;;12.50;99.90;;;;;;5103536;28;20113;-68
2022/05/30 06:34:57;;;;;;;;;;;12.60;99.90;;;;;;5113323;28;19946;-68
2022/05/30 06:37:25;;;;;;;;;;;12.70;99.90;;;;;;5113074;28;19927;-68
2022/05/30 06:39:53;;;;;;;;;;;13.40;99.90;;;;;;5102954;28;22013;-68
2022/05/30 06:42:19;;;;;;;;;;;13.70;99.90;;;;;;5098305;28;19924;-69
2022/05/30 06:44:46;;;;;;;;;;;15.60;98.30;;;;;;5113636;28;22525;-69
2022/05/30 06:47:13;;;;;;;;;;;17.20;90.80;;;;;;5108642;28;19923;-69
2022/05/30 06:49:39;;;;;;;;;;;17.00;85.00;;;;;;5099771;28;19923;-70
2022/05/30 06:52:08;;;;;;;;;;;18.10;77.70;;;;;;5093087;28;19928;-68
2022/05/30 06:54:36;;;;;;;;;;;19.40;68.40;;;;;;5108642;28;20393;-68
2022/05/30 06:59:49;;;;;;;;;;;22.40;43.30;;;;;;5104463;28;20073;-70
2022/05/30 07:02:16;;;;;;;;;;;23.10;33.80;;;;;;5106046;28;19924;-69
2022/05/30 07:04:42;;;;;;;;;;;22.30;30.30;;;;;;5106774;28;19928;-69
2022/05/30 07:07:09;;;;;;;;;;;22.30;32.30;;;;;;5110969;28;19924;-69
2022/05/30 07:09:38;;;;;;;;;;;22.80;29.60;;;;;;5108743;28;20279;-68
2022/05/30 07:12:05;;;;;;;;;;;23.40;28.90;;;;;;5119517;27;19927;-68
2022/05/30 07:14:32;;;;;;;;;;;23.30;27.70;;;;;;5098467;27;20345;-69
2022/05/30 07:16:59;;;;;;;;;;;23.00;27.50;;;;;;5110503;27;20374;-69
2022/05/30 07:19:25;;;;;;;;;;;23.50;25.60;;;;;;5113718;27;19923;-70
2022/05/30 07:21:52;;;;;;;;;;;23.50;25.10;;;;;;5111326;27;20290;-70
2022/05/30 07:24:19;;;;;;;;;;;23.30;23.40;;;;;;5116045;27;20044;-69
2022/05/30 07:26:47;;;;;;;;;;;24.10;22.90;;;;;;5106765;27;19946;-70
2022/05/30 07:29:14;;;;;;;;;;;24.50;20.30;;;;;;5101611;27;20293;-69
2022/05/30 07:31:40;;;;;;;;;;;24.40;20.00;;;;;;5105372;27;20402;-70
2022/05/30 07:34:07;;;;;;;;;;;24.50;17.50;;;;;;5108745;27;20422;-70
2022/05/30 07:36:34;;;;;;;;;;;25.00;17.60;;;;;;5113003;27;20331;-70
2022/05/30 07:39:01;;;;;;;;;;;25.40;16.10;;;;;;5104042;27;19971;-71
2022/05/30 07:41:28;;;;;;;;;;;;;;;;;;5111259;27;19924;-70
2022/05/30 07:43:56;;;;;;;;;;;20.40;19.40;;;;;;5102544;27;19924;-71
2022/05/30 07:46:23;;;;;;;;;;;18.60;23.10;;;;;;5108631;27;19927;-70
2022/05/30 07:48:50;;;;;;;;;;;18.10;25.60;;;;;;5111759;27;19924;-70
2022/05/30 07:51:17;;;;;;;;;;;17.20;26.80;;;;;;5105312;27;19931;-69
2022/05/30 07:53:44;;;;;;;;;;;16.20;27.70;;;;;;5108753;27;20065;-70
2022/05/30 07:56:12;;;;;;;;;;;15.70;29.90;;;;;;5102053;27;19985;-70
2022/05/30 07:58:39;;;;;;;;;;;15.50;31.00;;;;;;5107762;27;19924;-70
2022/05/30 08:01:11;;;;;;;;;;;16.30;30.50;;;;;;5108024;27;19977;-70
2022/05/30 08:03:38;;;;;;;;;;;18.70;29.40;;;;;;5103078;27;20248;-70
2022/05/30 08:06:05;;;;;;;;;;;21.20;24.30;;;;;;5106853;27;20050;-70
2022/05/30 08:08:32;;;;;;;;;;;22.30;21.70;;;;;;5103974;27;19928;-70
2022/05/30 08:10:58;;;;;;;;;;;22.80;19.50;;;;;;5108324;27;19923;-70
2022/05/30 08:13:25;;;;;;;;;;;22.80;17.90;;;;;;5104210;27;19930;-70
2022/05/30 08:15:52;;;;;;;;;;;21.70;17.20;;;;;;5104931;27;19928;-69
2022/05/30 08:18:20;;;;;;;;;;;20.30;20.00;;;;;;5100369;27;20286;-69
2022/05/30 08:20:47;;;;;;;;;;;19.20;21.00;;;;;;5102042;27;19924;-67
2022/05/30 08:23:13;;;;;;;;;;;18.10;23.30;;;;;;5097628;27;19928;-67
2022/05/30 08:25:43;;;;;;;;;;;17.30;24.40;;;;;;5104613;27;19924;-69
2022/05/30 08:28:09;;;;;;;;;;;16.80;26.60;;;;;;5104264;27;20663;-68
2022/05/30 08:30:36;;;;;;;;;;;16.60;26.60;;;;;;5102432;27;19955;-68
2022/05/30 08:33:03;;;;;;;;;;;16.30;27.50;;;;;;5095959;27;19928;-69
2022/05/30 08:35:31;;;;;;;;;;;15.10;27.80;;;;;;5101136;27;19930;-68
2022/05/30 08:37:58;;;;;;;;;;;14.40;28.10;;;;;;5105450;27;20035;-68
2022/05/30 08:43:13;;;;;;;;;;;14.10;31.00;;;;;;5107451;27;19930;-70
2022/05/30 08:45:40;;;;;;;;;;;13.80;31.10;;;;;;5107770;27;20018;-68
2022/05/30 08:48:11;;;;;;;;;;;14.10;31.80;;;;;;5112234;27;19959;-71
2022/05/30 08:50:44;;;;;;;;;;;14.80;30.80;;;;;;5104370;27;19923;-69
2022/05/30 08:53:25;;;;;;;;;;;15.00;29.80;;;;;;5110685;27;20007;-69
2022/05/30 08:55:54;;;;;;;;;;;15.20;29.90;;;;;;5100341;27;20413;-69
2022/05/30 08:58:30;;;;;;;;;;;15.60;29.70;;;;;;5103604;27;19936;-70
2022/05/30 09:01:00;;;;;;;;;;;15.50;31.00;;;;;;5106094;27;19927;-70
2022/05/30 09:03:31;;;;;;;;;;;16.50;30.00;;;;;;5103479;27;19924;-69
2022/05/30 09:06:02;;;;;;;;;;;17.50;26.30;;;;;;5095921;27;19934;-70
2022/05/30 09:08:30;;;;;;;;;;;17.40;25.60;;;;;;5104806;27;20418;-71
2022/05/30 09:10:59;;;;;;;;;;;17.10;25.80;;;;;;5098373;27;19999;-71
2022/05/30 09:13:29;;;;;;;;;;;16.70;26.40;;;;;;5106584;27;19935;-70
2022/05/30 09:16:01;;;;;;;;;;;16.70;26.60;;;;;;5108739;28;19950;-70
2022/05/30 09:18:33;;;;;;;;;;;16.70;27.90;;;;;;5115162;27;19924;-70
2022/05/30 09:21:02;;;;;;;;;;;16.40;27.10;;;;;;5100570;27;19932;-70
2022/05/30 09:23:28;;;;;;;;;;;16.10;28.30;;;;;;5103285;27;19924;-71
2022/05/30 09:26:00;;;;;;;;;;;15.90;27.60;;;;;;5099250;27;20015;-72
2022/05/30 09:28:33;;;;;;;;;;;15.80;28.50;;;;;;5102661;27;20046;-71
2022/05/30 09:31:03;;;;;;;;;;;15.30;29.60;;;;;;5098228;27;20299;-72
2022/05/30 09:33:32;;;;;;;;;;;15.00;30.80;;;;;;5099554;27;19930;-72
2022/05/30 09:36:13;;;;;;;;;;;15.00;31.00;;;;;;5102721;27;19932;-71
2022/05/30 09:38:41;;;;;;;;;;;15.00;31.00;;;;;;5106908;27;19985;-70
2022/05/30 09:41:11;;;;;;;;;;;15.00;31.70;;;;;;5109107;27;19941;-70
2022/05/30 09:43:41;;;;;;;;;;;14.90;30.60;;;;;;5104524;27;19939;-71
2022/05/30 09:46:16;;;;;;;;;;;14.90;31.00;;;;;;5105594;27;20642;-70
2022/05/30 09:48:58;;;;;;;;;;;15.00;34.60;;;;;;5105048;28;19928;-71
2022/05/30 09:51:34;;;;;;;;;;;14.80;33.50;;;;;;5102184;27;19939;-70
2022/05/30 09:54:00;;;;;;;;;;;14.70;34.00;;;;;;5112192;27;19924;-70
2022/05/30 09:56:28;;;;;;;;;;;14.80;34.00;;;;;;5102104;27;19924;-71
2022/05/30 09:59:04;;;;;;;;;;;15.10;35.30;;;;;;5103351;27;20022;-68
2022/05/30 10:01:31;;;;;;;;;;;15.50;33.60;;;;;;5108191;27;19923;-68
2022/05/30 10:04:13;;;;;;;;;;;15.90;32.50;;;;;;5104396;27;19924;-68
2022/05/30 10:06:41;;;;;;;;;;;16.10;31.60;;;;;;5096179;27;19924;-69
2022/05/30 10:09:09;;;;;;;;;;;16.20;31.00;;;;;;5097299;28;19924;-69
2022/05/30 10:11:36;;;;;;;;;;;16.40;30.20;;;;;;5099821;27;20265;-69
2022/05/30 10:14:17;;;;;;;;;;;16.40;30.30;;;;;;5101727;27;19928;-70
2022/05/30 10:16:45;;;;;;;;;;;16.40;29.50;;;;;;5102193;27;19924;-70
2022/05/30 10:19:22;;;;;;;;;;;16.00;31.50;;;;;;5107218;27;19930;-70
2022/05/30 10:30:26;;;;;;;;;;;15.40;34.50;;;;;;5028466;28;19964;-69
2022/05/30 10:32:59;;;;;;;;;;;15.50;35.40;;;;;;5079142;28;19930;-70
2022/05/30 10:35:28;;;;;;;;;;;15.40;34.60;;;;;;5102861;28;19934;-70
2022/05/30 10:38:03;;;;;;;;;;;15.40;35.20;;;;;;5098479;28;19946;-70
2022/05/30 10:40:33;;;;;;;;;;;15.40;34.70;;;;;;5094483;28;19931;-69
2022/05/30 10:43:02;;;;;;;;;;;15.40;34.30;;;;;;5099155;28;19985;-71
2022/05/30 10:45:32;;;;;;;;;;;15.50;34.50;;;;;;5116346;27;19924;-69
2022/05/30 10:47:59;;;;;;;;;;;15.40;36.00;;;;;;5113411;27;20383;-69
2022/05/30 10:50:42;;;;;;;;;;;15.30;36.90;;;;;;5106204;27;19928;-70
2022/05/30 10:53:13;;;;;;;;;;;14.70;37.50;;;;;;5100703;27;19985;-71
2022/05/30 10:55:43;;;;;;;;;;;14.50;39.50;;;;;;5100445;28;19930;-71
2022/05/30 10:58:14;;;;;;;;;;;15.00;38.40;;;;;;5111457;27;19923;-69
2022/05/30 11:00:44;;;;;;;;;;;15.30;38.00;;;;;;5122719;27;19923;-72
2022/05/30 11:03:13;;;;;;;;;;;15.20;38.20;;;;;;5105673;27;20022;-72
2022/05/30 11:05:44;;;;;;;;;;;15.30;38.00;;;;;;5103003;28;20401;-72
2022/05/30 11:08:15;;;;;;;;;;;15.30;37.50;;;;;;5103288;27;19973;-71
2022/05/30 11:10:45;;;;;;;;;;;15.40;36.60;;;;;;5108622;27;19928;-71
2022/05/30 11:13:20;;;;;;;;;;;15.30;37.30;;;;;;5115774;27;20371;-71
2022/05/30 11:15:48;;;;;;;;;;;15.30;37.60;;;;;;5101072;27;19973;-70
2022/05/30 11:18:18;;;;;;;;;;;15.40;38.20;;;;;;5107211;27;19951;-70
2022/05/30 11:20:48;;;;;;;;;;;15.20;39.10;;;;;;5105222;28;19923;-70
2022/05/30 11:23:18;;;;;;;;;;;15.40;38.50;;;;;;5105239;27;19924;-71
2022/05/30 11:25:59;;;;;;;;;;;15.30;37.60;;;;;;5093971;28;20027;-69
2022/05/30 11:28:34;;;;;;;;;;;15.60;38.20;;;;;;5102383;28;19928;-71
2022/05/30 11:31:05;;;;;;;;;;;15.50;36.50;;;;;;5105971;27;20357;-71
2022/05/30 11:33:49;;;;;;;;;;;15.50;35.40;;;;;;5113131;27;19932;-70
2022/05/30 11:36:24;;;;;;;;;;;15.50;33.90;;;;;;5108212;27;20257;-70
2022/05/30 11:38:58;;;;;;;;;;;15.50;32.80;;;;;;5097779;27;20024;-70
2022/05/30 11:41:33;;;;;;;;;;;15.70;33.80;;;;;;5108883;27;19938;-70
2022/05/30 11:44:07;;;;;;;;;;;15.60;32.00;;;;;;5101121;27;19927;-70
2022/05/30 11:46:37;;;;;;;;;;;15.70;32.60;;;;;;5106168;27;19928;-70
2022/05/30 11:49:06;;;;;;;;;;;15.80;33.00;;;;;;5106368;28;19931;-70
2022/05/30 11:51:39;;;;;;;;;;;16.00;30.80;;;;;;5108068;27;19923;-70
2022/05/30 11:54:26;;;;;;;;;;;15.90;32.70;;;;;;5107374;27;19934;-71
2022/05/30 11:57:01;;;;;;;;;;;16.00;32.20;;;;;;5108534;27;20319;-71
2022/05/30 11:59:45;;;;;;;;;;;16.10;30.00;;;;;;5106333;28;19928;-71
2022/05/30 12:02:14;;;;;;;;;;;16.40;29.40;;;;;;5093329;27;19986;-71
2022/05/30 12:04:53;;;;;;;;;;;16.40;27.80;;;;;;5106638;27;19931;-70
2022/05/30 12:07:34;;;;;;;;;;;16.30;28.30;;;;;;5100730;28;19930;-72
2022/05/30 12:10:08;;;;;;;;;;;16.60;29.10;;;;;;5108171;27;19940;-70
2022/05/30 12:12:42;;;;;;;;;;;16.70;27.40;;;;;;5094195;27;19932;-71
2022/05/30 12:15:24;;;;;;;;;;;17.10;27.20;;;;;;5096544;27;19931;-67
2022/05/30 12:23:52;;;;;;;;;;;17.60;26.00;;;;;;5105842;27;20021;-68
2022/05/30 12:26:34;;;;;;;;;;;17.60;26.00;;;;;;5103914;27;19939;-70
2022/05/30 12:29:02;;;;;;;;;;;16.80;27.30;;;;;;5106771;27;20022;-70
2022/05/30 12:31:36;;;;;;;;;;;16.60;25.90;;;;;;5110196;27;19933;-69
2022/05/30 12:34:02;;;;;;;;;;;16.70;26.80;;;;;;5102808;28;20325;-69
2022/05/30 12:36:36;;;;;;;;;;;16.30;26.50;;;;;;5094457;28;19927;-70
2022/05/30 12:39:10;;;;;;;;;;;16.10;28.50;;;;;;5097015;28;19971;-70
2022/05/30 12:41:39;;;;;;;;;;;16.80;27.60;;;;;;5100185;27;19923;-69
2022/05/30 12:44:22;;;;;;;;;;;16.80;26.50;;;;;;5102599;27;20006;-70
2022/05/30 12:46:51;;;;;;;;;;;17.20;25.90;;;;;;5103410;27;19924;-70
2022/05/30 12:49:28;;;;;;;;;;;17.30;26.20;;;;;;5105477;28;19923;-70
2022/05/30 12:52:13;;;;;;;;;;;17.70;25.60;;;;;;5096073;27;19939;-70
2022/05/30 12:55:00;;;;;;;;;;;17.80;23.60;;;;;;5104595;28;19935;-70
2022/05/30 12:57:37;;;;;;;;;;;17.90;24.40;;;;;;5097205;28;19931;-70
2022/05/30 13:00:14;;;;;;;;;;;16.70;25.00;;;;;;5111691;27;19923;-70
2022/05/30 13:02:45;;;;;;;;;;;16.70;25.50;;;;;;5100112;27;19930;-70
2022/05/30 13:05:17;;;;;;;;;;;17.00;26.70;;;;;;5096516;28;20483;-67
2022/05/30 13:07:44;;;;;;;;;;;17.10;26.70;;;;;;5100994;27;20385;-70
2022/05/30 13:10:11;;;;;;;;;;;17.40;27.10;;;;;;5107358;28;20030;-72
2022/05/30 13:12:53;;;;;;;;;;;17.70;26.60;;;;;;5101480;28;19934;-68
2022/05/30 13:15:36;;;;;;;;;;;18.10;25.50;;;;;;5101655;28;20003;-71
2022/05/30 13:18:05;;;;;;;;;;;18.40;24.50;;;;;;5104747;27;19924;-70
2022/05/30 13:20:42;;;;;;;;;;;18.70;25.10;;;;;;5102837;28;19988;-69
2022/05/30 13:23:09;;;;;;;;;;;18.60;25.50;;;;;;5101243;28;19931;-70
2022/05/30 13:25:38;;;;;;;;;;;18.30;24.40;;;;;;5101941;27;19942;-69
2022/05/30 13:28:09;;;;;;;;;;;18.20;24.80;;;;;;5106505;27;19924;-69
2022/05/30 13:30:38;;;;;;;;;;;18.60;25.40;;;;;;5097211;28;19931;-69
2022/05/30 13:33:12;;;;;;;;;;;18.90;23.90;;;;;;5098804;27;20397;-68
2022/05/30 13:35:39;;;;;;;;;;;19.20;24.50;;;;;;5093413;27;19924;-71
2022/05/30 13:38:09;;;;;;;;;;;19.30;23.50;;;;;;5099232;28;19924;-68
2022/05/30 13:40:36;;;;;;;;;;;18.90;23.70;;;;;;5101703;28;20521;-70
2022/05/30 13:43:04;;;;;;;;;;;19.10;23.30;;;;;;5100389;27;19934;-69
2022/05/30 13:45:35;;;;;;;;;;;18.80;22.60;;;;;;5102886;28;19967;-69
2022/05/30 13:48:05;;;;;;;;;;;18.20;23.70;;;;;;5098154;27;20406;-67
2022/05/30 13:50:56;;;;;;;;;;;18.00;22.90;;;;;;5106953;27;20011;-67
2022/05/30 13:53:23;;;;;;;;;;;17.90;22.70;;;;;;5072250;27;20213;-69
2022/05/30 13:55:54;;;;;;;;;;;17.70;22.60;;;;;;5092942;28;20002;-69
2022/05/30 13:58:21;;;;;;;;;;;17.70;21.70;;;;;;5093497;28;20018;-69
2022/05/30 14:00:48;;;;;;;;;;;17.80;21.80;;;;;;5101588;27;20406;-69
2022/05/30 14:03:16;;;;;;;;;;;18.00;21.80;;;;;;5106284;28;20290;-69
2022/05/30 14:05:45;;;;;;;;;;;17.30;22.60;;;;;;5107249;28;20058;-68
2022/05/30 14:08:14;;;;;;;;;;;16.90;23.70;;;;;;5102510;28;20561;-68
2022/05/30 14:10:41;;;;;;;;;;;17.40;23.80;;;;;;5088712;27;19939;-68
2022/05/30 14:13:18;;;;;;;;;;;17.50;25.00;;;;;;5101620;27;19974;-68
2022/05/30 14:15:53;;;;;;;;;;;18.30;23.10;;;;;;5094536;27;20371;-68
2022/05/30 14:18:25;;;;;;;;;;;18.70;22.50;;;;;;5089836;28;19931;-69
2022/05/30 14:20:53;;;;;;;;;;;19.00;21.00;;;;;;5101150;28;19924;-68
2022/05/30 14:23:22;;;;;;;;;;;18.90;21.50;;;;;;5101716;28;19979;-68
2022/05/30 14:25:49;;;;;;;;;;;19.20;21.90;;;;;;5106426;27;19924;-71
2022/05/30 14:28:22;;;;;;;;;;;19.60;21.40;;;;;;5106975;27;20058;-69
2022/05/30 14:30:49;;;;;;;;;;;19.60;20.30;;;;;;5099079;27;19933;-70
2022/05/30 14:33:30;;;;;;;;;;;19.50;20.70;;;;;;5106630;28;20189;-69
2022/05/30 14:36:11;;;;;;;;;;;19.40;20.60;;;;;;5095896;28;20014;-72
2022/05/30 14:38:40;;;;;;;;;;;19.40;19.70;;;;;;5100719;28;21660;-71
2022/05/30 14:41:06;;;;;;;;;;;19.70;20.30;;;;;;5095193;28;20453;-70
2022/05/30 14:43:45;;;;;;;;;;;19.80;19.40;;;;;;5107163;28;20380;-69
2022/05/30 14:46:16;;;;;;;;;;;19.70;19.70;;;;;;5095179;28;19931;-70
2022/05/30 14:48:45;;;;;;;;;;;19.40;17.30;;;;;;5102401;28;19992;-70
2022/05/30 14:51:16;;;;;;;;;;;19.00;19.50;;;;;;5099211;28;19976;-69
2022/05/30 14:53:43;;;;;;;;;;;19.30;20.70;;;;;;5095365;28;19982;-70
2022/05/30 14:56:12;;;;;;;;;;;19.40;19.80;;;;;;5103200;28;19930;-68
2022/05/30 14:58:42;;;;;;;;;;;19.00;19.70;;;;;;5103451;28;20003;-70
2022/05/30 15:01:09;;;;;;;;;;;18.60;20.50;;;;;;5110698;28;20393;-69
2022/05/30 15:06:22;;;;;;;;;;;19.00;20.00;;;;;;5096283;28;19934;-70